sensor_id;sensor_type;location;lat;lon;timestamp;temperature;humidity
40023;DHT22;25713;-35.352;149.036;2022-12-18T00:01:47;15.50;74.20
40023;DHT22;25713;-35.352;149.036;2022-12-18T00:04:21;15.50;75.10
40023;DHT22;25713;-35.352;149.036;2022-12-18T00:06:53;15.50;74.00
40023;DHT22;25713;-35.352;149.036;2022-12-18T00:09:23;15.50;74.80
40023;DHT22;25713;-35.352;149.036;2022-12-18T00:11:53;15.60;73.70
40023;DHT22;25713;-35.352;149.036;2022-12-18T00:14:22;15.60;72.70
40023;DHT22;25713;-35.352;149.036;2022-12-18T00:16:52;15.60;71.40
40023;DHT22;25713;-35.352;149.036;2022-12-18T00:19:22;15.60;72.60
40023;DHT22;25713;-35.352;149.036;2022-12-18T00:21:54;15.60;72.50
40023;DHT22;25713;-35.352;149.036;2022-12-18T00:24:24;15.60;73.00
40023;DHT22;25713;-35.352;149.036;2022-12-18T00:26:54;15.60;72.00
40023;DHT22;25713;-35.352;149.036;2022-12-18T00:29:23;15.70;71.20
40023;DHT22;25713;-35.352;149.036;2022-12-18T00:31:53;15.70;72.20
40023;DHT22;25713;-35.352;149.036;2022-12-18T00:34:23;15.80;73.10
40023;DHT22;25713;-35.352;149.036;2022-12-18T00:36:56;15.80;72.50
40023;DHT22;25713;-35.352;149.036;2022-12-18T00:39:26;15.80;73.20
40023;DHT22;25713;-35.352;149.036;2022-12-18T00:41:56;15.80;72.10
40023;DHT22;25713;-35.352;149.036;2022-12-18T00:44:25;15.80;71.90
40023;DHT22;25713;-35.352;149.036;2022-12-18T00:46:55;15.80;72.00
40023;DHT22;25713;-35.352;149.036;2022-12-18T00:49:25;15.90;70.90
40023;DHT22;25713;-35.352;149.036;2022-12-18T00:51:57;15.90;71.80
40023;DHT22;25713;-35.352;149.036;2022-12-18T00:54:26;15.90;69.90
40023;DHT22;25713;-35.352;149.036;2022-12-18T00:56:56;15.90;71.70
40023;DHT22;25713;-35.352;149.036;2022-12-18T00:59:26;16.00;71.00
40023;DHT22;25713;-35.352;149.036;2022-12-18T01:01:56;15.90;72.40
40023;DHT22;25713;-35.352;149.036;2022-12-18T01:04:25;16.00;71.70
40023;DHT22;25713;-35.352;149.036;2022-12-18T01:06:57;16.00;71.60
40023;DHT22;25713;-35.352;149.036;2022-12-18T01:09:27;16.00;71.50
40023;DHT22;25713;-35.352;149.036;2022-12-18T01:11:57;16.00;69.80
40023;DHT22;25713;-35.352;149.036;2022-12-18T01:14:26;16.00;71.70
40023;DHT22;25713;-35.352;149.036;2022-12-18T01:16:56;16.00;71.90
40023;DHT22;25713;-35.352;149.036;2022-12-18T01:19:26;16.10;70.80
40023;DHT22;25713;-35.352;149.036;2022-12-18T01:21:59;16.10;71.30
40023;DHT22;25713;-35.352;149.036;2022-12-18T01:24:29;16.10;71.40
40023;DHT22;25713;-35.352;149.036;2022-12-18T01:26:59;16.20;71.40
40023;DHT22;25713;-35.352;149.036;2022-12-18T01:29:29;16.20;69.40
40023;DHT22;25713;-35.352;149.036;2022-12-18T01:31:59;16.20;69.90
40023;DHT22;25713;-35.352;149.036;2022-12-18T01:34:29;16.20;69.40
40023;DHT22;25713;-35.352;149.036;2022-12-18T01:37:03;16.20;71.00
40023;DHT22;25713;-35.352;149.036;2022-12-18T01:39:34;16.30;71.00
40023;DHT22;25713;-35.352;149.036;2022-12-18T01:42:08;16.30;70.70
40023;DHT22;25713;-35.352;149.036;2022-12-18T01:44:58;16.30;71.00
40023;DHT22;25713;-35.352;149.036;2022-12-18T01:47:32;16.40;69.10
40023;DHT22;25713;-35.352;149.036;2022-12-18T01:50:07;16.40;69.30
40023;DHT22;25713;-35.352;149.036;2022-12-18T01:52:40;16.40;69.90
40023;DHT22;25713;-35.352;149.036;2022-12-18T01:55:11;16.40;70.90
40023;DHT22;25713;-35.352;149.036;2022-12-18T01:57:42;16.50;68.90
40023;DHT22;25713;-35.352;149.036;2022-12-18T02:00:15;16.50;71.00
40023;DHT22;25713;-35.352;149.036;2022-12-18T02:02:47;16.50;71.00
40023;DHT22;25713;-35.352;149.036;2022-12-18T02:05:19;16.50;70.90
40023;DHT22;25713;-35.352;149.036;2022-12-18T02:07:53;16.50;70.50
40023;DHT22;25713;-35.352;149.036;2022-12-18T02:10:24;16.50;71.50
40023;DHT22;25713;-35.352;149.036;2022-12-18T02:12:56;16.60;69.30
40023;DHT22;25713;-35.352;149.036;2022-12-18T02:15:30;16.60;68.50
40023;DHT22;25713;-35.352;149.036;2022-12-18T02:18:01;16.60;69.30
40023;DHT22;25713;-35.352;149.036;2022-12-18T02:20:33;16.60;71.70
40023;DHT22;25713;-35.352;149.036;2022-12-18T02:23:09;16.70;69.90
40023;DHT22;25713;-35.352;149.036;2022-12-18T02:25:52;16.70;71.20
40023;DHT22;25713;-35.352;149.036;2022-12-18T02:28:24;16.70;71.60
40023;DHT22;25713;-35.352;149.036;2022-12-18T02:30:56;16.70;71.00
40023;DHT22;25713;-35.352;149.036;2022-12-18T02:33:26;16.80;69.80
40023;DHT22;25713;-35.352;149.036;2022-12-18T02:35:55;16.90;69.70
40023;DHT22;25713;-35.352;149.036;2022-12-18T02:38:25;16.90;71.70
40023;DHT22;25713;-35.352;149.036;2022-12-18T02:40:58;16.90;70.80
40023;DHT22;25713;-35.352;149.036;2022-12-18T02:43:28;17.00;70.50
40023;DHT22;25713;-35.352;149.036;2022-12-18T02:45:59;17.00;70.40
40023;DHT22;25713;-35.352;149.036;2022-12-18T02:48:32;17.00;70.30
40023;DHT22;25713;-35.352;149.036;2022-12-18T02:51:02;17.10;70.40
40023;DHT22;25713;-35.352;149.036;2022-12-18T02:53:33;17.00;71.40
40023;DHT22;25713;-35.352;149.036;2022-12-18T02:56:09;17.00;70.80
40023;DHT22;25713;-35.352;149.036;2022-12-18T02:58:43;17.10;70.60
40023;DHT22;25713;-35.352;149.036;2022-12-18T03:01:24;17.20;67.30
40023;DHT22;25713;-35.352;149.036;2022-12-18T03:03:55;17.20;68.00
40023;DHT22;25713;-35.352;149.036;2022-12-18T03:06:25;17.30;68.60
40023;DHT22;25713;-35.352;149.036;2022-12-18T03:08:57;17.30;70.10
40023;DHT22;25713;-35.352;149.036;2022-12-18T03:11:30;17.20;69.60
40023;DHT22;25713;-35.352;149.036;2022-12-18T03:13:59;17.30;69.40
40023;DHT22;25713;-35.352;149.036;2022-12-18T03:16:28;17.30;69.00
40023;DHT22;25713;-35.352;149.036;2022-12-18T03:18:56;17.30;68.90
40023;DHT22;25713;-35.352;149.036;2022-12-18T03:21:28;17.30;69.00
40023;DHT22;25713;-35.352;149.036;2022-12-18T03:23:58;17.30;69.00
40023;DHT22;25713;-35.352;149.036;2022-12-18T03:26:30;17.40;69.20
40023;DHT22;25713;-35.352;149.036;2022-12-18T03:29:02;17.40;68.50
40023;DHT22;25713;-35.352;149.036;2022-12-18T03:31:33;17.30;69.70
40023;DHT22;25713;-35.352;149.036;2022-12-18T03:34:02;17.40;67.30
40023;DHT22;25713;-35.352;149.036;2022-12-18T03:36:40;17.40;66.80
40023;DHT22;25713;-35.352;149.036;2022-12-18T03:39:08;17.60;67.80
40023;DHT22;25713;-35.352;149.036;2022-12-18T03:41:42;17.50;68.70
40023;DHT22;25713;-35.352;149.036;2022-12-18T03:44:27;17.50;67.90
40023;DHT22;25713;-35.352;149.036;2022-12-18T03:46:58;17.70;66.00
40023;DHT22;25713;-35.352;149.036;2022-12-18T03:49:32;17.70;66.10
40023;DHT22;25713;-35.352;149.036;2022-12-18T03:52:04;17.70;68.90
40023;DHT22;25713;-35.352;149.036;2022-12-18T03:54:34;17.70;66.90
40023;DHT22;25713;-35.352;149.036;2022-12-18T03:57:14;17.60;67.80
40023;DHT22;25713;-35.352;149.036;2022-12-18T03:59:44;17.70;66.10
40023;DHT22;25713;-35.352;149.036;2022-12-18T04:02:15;17.70;67.10
40023;DHT22;25713;-35.352;149.036;2022-12-18T04:04:46;17.70;67.10
40023;DHT22;25713;-35.352;149.036;2022-12-18T04:07:17;17.70;66.30
40023;DHT22;25713;-35.352;149.036;2022-12-18T04:09:46;17.80;65.80
40023;DHT22;25713;-35.352;149.036;2022-12-18T04:12:18;17.70;67.10
40023;DHT22;25713;-35.352;149.036;2022-12-18T04:14:47;17.70;66.40
40023;DHT22;25713;-35.352;149.036;2022-12-18T04:17:17;17.80;67.40
40023;DHT22;25713;-35.352;149.036;2022-12-18T04:19:45;17.70;67.90
40023;DHT22;25713;-35.352;149.036;2022-12-18T04:22:14;17.80;67.20
40023;DHT22;25713;-35.352;149.036;2022-12-18T04:24:46;17.80;68.20
40023;DHT22;25713;-35.352;149.036;2022-12-18T04:27:25;17.80;68.00
40023;DHT22;25713;-35.352;149.036;2022-12-18T04:29:53;17.80;67.30
40023;DHT22;25713;-35.352;149.036;2022-12-18T04:32:22;17.90;67.20
40023;DHT22;25713;-35.352;149.036;2022-12-18T04:34:51;17.80;67.70
40023;DHT22;25713;-35.352;149.036;2022-12-18T04:37:19;17.90;67.40
40023;DHT22;25713;-35.352;149.036;2022-12-18T04:39:50;17.80;68.30
40023;DHT22;25713;-35.352;149.036;2022-12-18T04:42:28;17.80;67.10
40023;DHT22;25713;-35.352;149.036;2022-12-18T04:44:56;17.90;67.00
40023;DHT22;25713;-35.352;149.036;2022-12-18T04:47:24;17.80;67.60
40023;DHT22;25713;-35.352;149.036;2022-12-18T04:49:52;17.80;66.50
40023;DHT22;25713;-35.352;149.036;2022-12-18T04:52:21;17.80;67.70
40023;DHT22;25713;-35.352;149.036;2022-12-18T04:54:49;17.80;67.90
40023;DHT22;25713;-35.352;149.036;2022-12-18T04:57:17;17.90;68.30
40023;DHT22;25713;-35.352;149.036;2022-12-18T04:59:48;17.90;66.30
40023;DHT22;25713;-35.352;149.036;2022-12-18T05:02:16;18.10;66.30
40023;DHT22;25713;-35.352;149.036;2022-12-18T05:04:44;18.10;67.00
40023;DHT22;25713;-35.352;149.036;2022-12-18T05:07:12;18.00;68.20
40023;DHT22;25713;-35.352;149.036;2022-12-18T05:09:41;17.90;68.10
40023;DHT22;25713;-35.352;149.036;2022-12-18T05:12:09;18.00;67.40
40023;DHT22;25713;-35.352;149.036;2022-12-18T05:14:37;18.10;66.30
40023;DHT22;25713;-35.352;149.036;2022-12-18T05:17:08;18.10;67.30
40023;DHT22;25713;-35.352;149.036;2022-12-18T05:19:36;18.00;68.30
40023;DHT22;25713;-35.352;149.036;2022-12-18T05:22:05;18.00;67.30
40023;DHT22;25713;-35.352;149.036;2022-12-18T05:24:33;18.00;67.80
40023;DHT22;25713;-35.352;149.036;2022-12-18T05:27:01;18.00;68.60
40023;DHT22;25713;-35.352;149.036;2022-12-18T05:29:29;17.90;68.10
40023;DHT22;25713;-35.352;149.036;2022-12-18T05:31:58;17.90;68.20
40023;DHT22;25713;-35.352;149.036;2022-12-18T05:34:28;18.00;67.70
40023;DHT22;25713;-35.352;149.036;2022-12-18T05:36:56;18.00;67.80
40023;DHT22;25713;-35.352;149.036;2022-12-18T05:39:24;18.00;68.00
40023;DHT22;25713;-35.352;149.036;2022-12-18T05:41:52;17.90;68.60
40023;DHT22;25713;-35.352;149.036;2022-12-18T05:44:21;18.00;67.00
40023;DHT22;25713;-35.352;149.036;2022-12-18T05:46:49;18.00;67.20
40023;DHT22;25713;-35.352;149.036;2022-12-18T05:49:17;18.10;67.30
40023;DHT22;25713;-35.352;149.036;2022-12-18T05:51:47;18.10;66.90
40023;DHT22;25713;-35.352;149.036;2022-12-18T05:54:16;18.10;67.10
40023;DHT22;25713;-35.352;149.036;2022-12-18T05:56:44;18.00;65.80
40023;DHT22;25713;-35.352;149.036;2022-12-18T05:59:12;18.10;65.80
40023;DHT22;25713;-35.352;149.036;2022-12-18T06:01:40;18.10;65.30
40023;DHT22;25713;-35.352;149.036;2022-12-18T06:04:09;18.20;65.30
40023;DHT22;25713;-35.352;149.036;2022-12-18T06:06:37;18.20;66.00
40023;DHT22;25713;-35.352;149.036;2022-12-18T06:09:07;18.10;66.70
40023;DHT22;25713;-35.352;149.036;2022-12-18T06:11:36;18.10;66.80
40023;DHT22;25713;-35.352;149.036;2022-12-18T06:14:05;18.20;66.10
40023;DHT22;25713;-35.352;149.036;2022-12-18T06:16:33;18.20;66.90
40023;DHT22;25713;-35.352;149.036;2022-12-18T06:19:01;18.00;68.70
40023;DHT22;25713;-35.352;149.036;2022-12-18T06:21:30;18.20;65.60
40023;DHT22;25713;-35.352;149.036;2022-12-18T06:23:59;18.30;63.90
40023;DHT22;25713;-35.352;149.036;2022-12-18T06:26:29;18.40;64.80
40023;DHT22;25713;-35.352;149.036;2022-12-18T06:28:57;18.40;64.20
40023;DHT22;25713;-35.352;149.036;2022-12-18T06:31:26;18.40;65.40
40023;DHT22;25713;-35.352;149.036;2022-12-18T06:33:54;18.30;66.20
40023;DHT22;25713;-35.352;149.036;2022-12-18T06:36:22;18.30;66.50
40023;DHT22;25713;-35.352;149.036;2022-12-18T06:38:50;18.30;65.70
40023;DHT22;25713;-35.352;149.036;2022-12-18T06:41:20;18.20;66.50
40023;DHT22;25713;-35.352;149.036;2022-12-18T06:43:50;18.30;65.30
40023;DHT22;25713;-35.352;149.036;2022-12-18T06:46:18;18.40;64.00
40023;DHT22;25713;-35.352;149.036;2022-12-18T06:48:47;18.40;65.80
40023;DHT22;25713;-35.352;149.036;2022-12-18T06:51:16;18.30;66.40
40023;DHT22;25713;-35.352;149.036;2022-12-18T06:53:44;18.20;67.50
40023;DHT22;25713;-35.352;149.036;2022-12-18T06:56:13;18.10;68.70
40023;DHT22;25713;-35.352;149.036;2022-12-18T06:58:41;18.10;67.70
40023;DHT22;25713;-35.352;149.036;2022-12-18T07:01:12;18.00;68.30
40023;DHT22;25713;-35.352;149.036;2022-12-18T07:03:40;18.00;68.10
40023;DHT22;25713;-35.352;149.036;2022-12-18T07:06:13;18.10;67.70
40023;DHT22;25713;-35.352;149.036;2022-12-18T07:08:41;18.00;67.40
40023;DHT22;25713;-35.352;149.036;2022-12-18T07:11:09;18.00;66.40
40023;DHT22;25713;-35.352;149.036;2022-12-18T07:13:37;18.00;65.60
40023;DHT22;25713;-35.352;149.036;2022-12-18T07:16:07;18.10;64.60
40023;DHT22;25713;-35.352;149.036;2022-12-18T07:18:37;18.20;64.80
40023;DHT22;25713;-35.352;149.036;2022-12-18T07:21:06;18.20;64.30
40023;DHT22;25713;-35.352;149.036;2022-12-18T07:23:35;18.30;65.50
40023;DHT22;25713;-35.352;149.036;2022-12-18T07:26:03;18.30;66.20
40023;DHT22;25713;-35.352;149.036;2022-12-18T07:28:32;18.20;64.40
40023;DHT22;25713;-35.352;149.036;2022-12-18T07:31:02;18.20;65.40
40023;DHT22;25713;-35.352;149.036;2022-12-18T07:33:30;18.20;66.00
40023;DHT22;25713;-35.352;149.036;2022-12-18T07:36:01;18.10;68.50
40023;DHT22;25713;-35.352;149.036;2022-12-18T07:38:30;18.00;66.90
40023;DHT22;25713;-35.352;149.036;2022-12-18T07:41:00;18.00;65.60
40023;DHT22;25713;-35.352;149.036;2022-12-18T07:43:28;18.00;66.50
40023;DHT22;25713;-35.352;149.036;2022-12-18T07:45:57;18.00;67.60
40023;DHT22;25713;-35.352;149.036;2022-12-18T07:48:25;18.00;67.20
40023;DHT22;25713;-35.352;149.036;2022-12-18T07:50:55;18.10;66.90
40023;DHT22;25713;-35.352;149.036;2022-12-18T07:53:28;18.10;67.20
40023;DHT22;25713;-35.352;149.036;2022-12-18T07:55:56;18.10;67.10
40023;DHT22;25713;-35.352;149.036;2022-12-18T07:58:24;18.10;68.00
40023;DHT22;25713;-35.352;149.036;2022-12-18T08:00:53;18.00;65.70
40023;DHT22;25713;-35.352;149.036;2022-12-18T08:03:21;18.00;67.50
40023;DHT22;25713;-35.352;149.036;2022-12-18T08:05:49;18.00;67.20
40023;DHT22;25713;-35.352;149.036;2022-12-18T08:08:17;18.00;66.40
40023;DHT22;25713;-35.352;149.036;2022-12-18T08:10:48;17.90;67.90
40023;DHT22;25713;-35.352;149.036;2022-12-18T08:13:16;17.90;66.60
40023;DHT22;25713;-35.352;149.036;2022-12-18T08:15:45;17.90;66.70
40023;DHT22;25713;-35.352;149.036;2022-12-18T08:18:13;17.90;67.60
40023;DHT22;25713;-35.352;149.036;2022-12-18T08:20:41;17.90;66.00
40023;DHT22;25713;-35.352;149.036;2022-12-18T08:23:10;17.90;65.80
40023;DHT22;25713;-35.352;149.036;2022-12-18T08:25:38;17.80;67.10
40023;DHT22;25713;-35.352;149.036;2022-12-18T08:28:09;17.80;67.10
40023;DHT22;25713;-35.352;149.036;2022-12-18T08:30:37;17.80;66.90
40023;DHT22;25713;-35.352;149.036;2022-12-18T08:33:05;17.80;67.00
40023;DHT22;25713;-35.352;149.036;2022-12-18T08:35:35;17.80;67.80
40023;DHT22;25713;-35.352;149.036;2022-12-18T08:38:03;17.70;67.60
40023;DHT22;25713;-35.352;149.036;2022-12-18T08:40:31;17.80;66.30
40023;DHT22;25713;-35.352;149.036;2022-12-18T08:42:59;17.70;67.50
40023;DHT22;25713;-35.352;149.036;2022-12-18T08:45:30;17.70;67.20
40023;DHT22;25713;-35.352;149.036;2022-12-18T08:47:58;17.70;66.50
40023;DHT22;25713;-35.352;149.036;2022-12-18T08:50:26;17.70;67.50
40023;DHT22;25713;-35.352;149.036;2022-12-18T08:52:54;17.70;68.10
40023;DHT22;25713;-35.352;149.036;2022-12-18T08:55:23;17.70;69.00
40023;DHT22;25713;-35.352;149.036;2022-12-18T08:57:51;17.60;69.30
40023;DHT22;25713;-35.352;149.036;2022-12-18T09:00:19;17.60;70.10
40023;DHT22;25713;-35.352;149.036;2022-12-18T09:02:49;17.60;70.90
40023;DHT22;25713;-35.352;149.036;2022-12-18T09:05:18;17.60;71.80
40023;DHT22;25713;-35.352;149.036;2022-12-18T09:07:46;17.50;71.50
40023;DHT22;25713;-35.352;149.036;2022-12-18T09:10:14;17.50;70.80
40023;DHT22;25713;-35.352;149.036;2022-12-18T09:12:43;17.50;71.60
40023;DHT22;25713;-35.352;149.036;2022-12-18T09:15:11;17.50;72.00
40023;DHT22;25713;-35.352;149.036;2022-12-18T09:17:39;17.50;71.70
40023;DHT22;25713;-35.352;149.036;2022-12-18T09:20:10;17.50;71.90
40023;DHT22;25713;-35.352;149.036;2022-12-18T09:22:38;17.50;72.50
40023;DHT22;25713;-35.352;149.036;2022-12-18T09:25:07;17.40;73.30
40023;DHT22;25713;-35.352;149.036;2022-12-18T09:27:35;17.40;73.10
40023;DHT22;25713;-35.352;149.036;2022-12-18T09:30:04;17.30;73.20
40023;DHT22;25713;-35.352;149.036;2022-12-18T09:32:32;17.30;73.10
40023;DHT22;25713;-35.352;149.036;2022-12-18T09:35:00;17.30;74.10
40023;DHT22;25713;-35.352;149.036;2022-12-18T09:37:31;17.20;74.50
40023;DHT22;25713;-35.352;149.036;2022-12-18T09:39:59;17.20;74.40
40023;DHT22;25713;-35.352;149.036;2022-12-18T09:42:28;17.20;74.60
40023;DHT22;25713;-35.352;149.036;2022-12-18T09:44:56;17.20;75.10
40023;DHT22;25713;-35.352;149.036;2022-12-18T09:47:25;17.10;75.60
40023;DHT22;25713;-35.352;149.036;2022-12-18T09:49:55;17.10;74.80
40023;DHT22;25713;-35.352;149.036;2022-12-18T09:52:25;17.10;75.20
40023;DHT22;25713;-35.352;149.036;2022-12-18T09:54:58;17.10;76.30
40023;DHT22;25713;-35.352;149.036;2022-12-18T09:57:29;17.10;76.00
40023;DHT22;25713;-35.352;149.036;2022-12-18T09:59:59;17.00;76.60
40023;DHT22;25713;-35.352;149.036;2022-12-18T10:02:39;17.00;76.60
40023;DHT22;25713;-35.352;149.036;2022-12-18T10:05:07;17.00;77.00
40023;DHT22;25713;-35.352;149.036;2022-12-18T10:07:40;17.00;76.80
40023;DHT22;25713;-35.352;149.036;2022-12-18T10:10:16;17.00;76.70
40023;DHT22;25713;-35.352;149.036;2022-12-18T10:12:48;17.00;77.40
40023;DHT22;25713;-35.352;149.036;2022-12-18T10:15:22;17.00;77.50
40023;DHT22;25713;-35.352;149.036;2022-12-18T10:17:54;16.90;77.40
40023;DHT22;25713;-35.352;149.036;2022-12-18T10:20:27;16.90;78.30
40023;DHT22;25713;-35.352;149.036;2022-12-18T10:22:58;16.90;77.50
40023;DHT22;25713;-35.352;149.036;2022-12-18T10:25:31;16.90;78.00
40023;DHT22;25713;-35.352;149.036;2022-12-18T10:28:06;16.90;78.10
40023;DHT22;25713;-35.352;149.036;2022-12-18T10:30:35;16.90;78.00
40023;DHT22;25713;-35.352;149.036;2022-12-18T10:33:04;16.90;79.10
40023;DHT22;25713;-35.352;149.036;2022-12-18T10:35:32;16.90;78.10
40023;DHT22;25713;-35.352;149.036;2022-12-18T10:38:07;16.90;78.70
40023;DHT22;25713;-35.352;149.036;2022-12-18T10:40:52;16.80;78.80
40023;DHT22;25713;-35.352;149.036;2022-12-18T10:43:21;16.90;79.80
40023;DHT22;25713;-35.352;149.036;2022-12-18T10:46:02;16.80;79.20
40023;DHT22;25713;-35.352;149.036;2022-12-18T10:48:32;16.90;78.90
40023;DHT22;25713;-35.352;149.036;2022-12-18T10:51:01;16.90;79.90
40023;DHT22;25713;-35.352;149.036;2022-12-18T10:53:30;16.80;79.70
40023;DHT22;25713;-35.352;149.036;2022-12-18T10:56:03;16.90;80.50
40023;DHT22;25713;-35.352;149.036;2022-12-18T10:58:33;16.90;80.30
40023;DHT22;25713;-35.352;149.036;2022-12-18T11:01:02;16.90;80.30
40023;DHT22;25713;-35.352;149.036;2022-12-18T11:03:31;16.90;80.60
40023;DHT22;25713;-35.352;149.036;2022-12-18T11:06:04;16.90;79.90
40023;DHT22;25713;-35.352;149.036;2022-12-18T11:08:32;16.90;80.70
40023;DHT22;25713;-35.352;149.036;2022-12-18T11:11:04;16.90;81.00
40023;DHT22;25713;-35.352;149.036;2022-12-18T11:13:34;16.90;80.70
40023;DHT22;25713;-35.352;149.036;2022-12-18T11:16:03;16.90;80.40
40023;DHT22;25713;-35.352;149.036;2022-12-18T11:18:31;16.80;80.40
40023;DHT22;25713;-35.352;149.036;2022-12-18T11:21:04;16.80;80.80
40023;DHT22;25713;-35.352;149.036;2022-12-18T11:23:33;16.80;80.90
40023;DHT22;25713;-35.352;149.036;2022-12-18T11:26:04;16.80;81.00
40023;DHT22;25713;-35.352;149.036;2022-12-18T11:28:37;16.90;80.90
40023;DHT22;25713;-35.352;149.036;2022-12-18T11:31:11;16.80;80.60
40023;DHT22;25713;-35.352;149.036;2022-12-18T11:33:41;16.80;80.70
40023;DHT22;25713;-35.352;149.036;2022-12-18T11:36:10;16.80;81.00
40023;DHT22;25713;-35.352;149.036;2022-12-18T11:38:39;16.80;81.60
40023;DHT22;25713;-35.352;149.036;2022-12-18T11:41:13;16.80;81.50
40023;DHT22;25713;-35.352;149.036;2022-12-18T11:43:44;16.80;81.80
40023;DHT22;25713;-35.352;149.036;2022-12-18T11:46:17;16.80;82.50
40023;DHT22;25713;-35.352;149.036;2022-12-18T11:48:48;16.80;82.60
40023;DHT22;25713;-35.352;149.036;2022-12-18T11:51:18;16.80;82.40
40023;DHT22;25713;-35.352;149.036;2022-12-18T11:53:49;16.80;82.80
40023;DHT22;25713;-35.352;149.036;2022-12-18T11:56:27;16.80;83.00
40023;DHT22;25713;-35.352;149.036;2022-12-18T11:58:59;16.80;83.80
40023;DHT22;25713;-35.352;149.036;2022-12-18T12:01:35;16.80;83.40
40023;DHT22;25713;-35.352;149.036;2022-12-18T12:04:13;16.80;83.40
40023;DHT22;25713;-35.352;149.036;2022-12-18T12:06:46;16.80;82.50
40023;DHT22;25713;-35.352;149.036;2022-12-18T12:09:18;16.80;81.70
40023;DHT22;25713;-35.352;149.036;2022-12-18T12:11:55;16.70;81.60
40023;DHT22;25713;-35.352;149.036;2022-12-18T12:14:29;16.70;81.80
40023;DHT22;25713;-35.352;149.036;2022-12-18T12:17:01;16.70;81.60
40023;DHT22;25713;-35.352;149.036;2022-12-18T12:19:37;16.70;82.50
40023;DHT22;25713;-35.352;149.036;2022-12-18T12:22:07;16.70;82.00
40023;DHT22;25713;-35.352;149.036;2022-12-18T12:24:42;16.70;82.40
40023;DHT22;25713;-35.352;149.036;2022-12-18T12:27:17;16.70;82.10
40023;DHT22;25713;-35.352;149.036;2022-12-18T12:29:50;16.60;81.00
40023;DHT22;25713;-35.352;149.036;2022-12-18T12:32:25;16.60;80.00
40023;DHT22;25713;-35.352;149.036;2022-12-18T12:34:59;16.60;80.20
40023;DHT22;25713;-35.352;149.036;2022-12-18T12:37:33;16.60;80.20
40023;DHT22;25713;-35.352;149.036;2022-12-18T12:40:07;16.60;79.00
40023;DHT22;25713;-35.352;149.036;2022-12-18T12:42:38;16.50;79.30
40023;DHT22;25713;-35.352;149.036;2022-12-18T12:45:20;16.50;79.00
40023;DHT22;25713;-35.352;149.036;2022-12-18T12:47:49;16.50;78.60
40023;DHT22;25713;-35.352;149.036;2022-12-18T12:50:19;16.50;78.70
40023;DHT22;25713;-35.352;149.036;2022-12-18T12:52:49;16.50;79.40
40023;DHT22;25713;-35.352;149.036;2022-12-18T12:55:19;16.50;78.60
40023;DHT22;25713;-35.352;149.036;2022-12-18T12:57:51;16.50;79.20
40023;DHT22;25713;-35.352;149.036;2022-12-18T13:00:23;16.50;77.90
40023;DHT22;25713;-35.352;149.036;2022-12-18T13:02:52;16.40;78.00
40023;DHT22;25713;-35.352;149.036;2022-12-18T13:05:25;16.40;77.50
40023;DHT22;25713;-35.352;149.036;2022-12-18T13:07:57;16.40;78.30
40023;DHT22;25713;-35.352;149.036;2022-12-18T13:10:31;16.40;77.20
40023;DHT22;25713;-35.352;149.036;2022-12-18T13:13:02;16.40;75.60
40023;DHT22;25713;-35.352;149.036;2022-12-18T13:15:34;16.40;77.40
40023;DHT22;25713;-35.352;149.036;2022-12-18T13:18:20;16.30;76.70
40023;DHT22;25713;-35.352;149.036;2022-12-18T13:20:49;16.30;76.10
40023;DHT22;25713;-35.352;149.036;2022-12-18T13:28:54;16.30;76.20
40023;DHT22;25713;-35.352;149.036;2022-12-18T13:34:12;16.20;75.30
40023;DHT22;25713;-35.352;149.036;2022-12-18T13:36:43;16.20;75.20
40023;DHT22;25713;-35.352;149.036;2022-12-18T13:39:20;16.20;75.10
40023;DHT22;25713;-35.352;149.036;2022-12-18T13:41:49;16.20;75.10
40023;DHT22;25713;-35.352;149.036;2022-12-18T13:44:25;16.20;75.20
40023;DHT22;25713;-35.352;149.036;2022-12-18T13:46:53;16.20;75.70
40023;DHT22;25713;-35.352;149.036;2022-12-18T13:49:23;16.20;75.30
40023;DHT22;25713;-35.352;149.036;2022-12-18T13:51:52;16.20;75.80
40023;DHT22;25713;-35.352;149.036;2022-12-18T13:54:30;16.10;75.60
40023;DHT22;25713;-35.352;149.036;2022-12-18T13:57:00;16.10;75.70
40023;DHT22;25713;-35.352;149.036;2022-12-18T13:59:36;16.10;75.60
40023;DHT22;25713;-35.352;149.036;2022-12-18T14:02:09;16.10;75.10
40023;DHT22;25713;-35.352;149.036;2022-12-18T14:04:40;16.10;75.30
40023;DHT22;25713;-35.352;149.036;2022-12-18T14:07:10;16.10;75.20
40023;DHT22;25713;-35.352;149.036;2022-12-18T14:09:40;16.10;74.80
40023;DHT22;25713;-35.352;149.036;2022-12-18T14:12:14;16.00;75.20
40023;DHT22;25713;-35.352;149.036;2022-12-18T14:14:47;16.00;74.80
40023;DHT22;25713;-35.352;149.036;2022-12-18T14:17:16;16.00;75.00
40023;DHT22;25713;-35.352;149.036;2022-12-18T14:19:45;16.00;74.80
40023;DHT22;25713;-35.352;149.036;2022-12-18T14:22:15;16.00;74.50
40023;DHT22;25713;-35.352;149.036;2022-12-18T14:24:44;16.00;74.00
40023;DHT22;25713;-35.352;149.036;2022-12-18T14:27:22;16.00;73.90
40023;DHT22;25713;-35.352;149.036;2022-12-18T14:29:53;16.00;73.80
40023;DHT22;25713;-35.352;149.036;2022-12-18T14:32:21;16.00;73.60
40023;DHT22;25713;-35.352;149.036;2022-12-18T14:34:49;15.90;73.50
40023;DHT22;25713;-35.352;149.036;2022-12-18T14:37:20;15.90;73.30
40023;DHT22;25713;-35.352;149.036;2022-12-18T14:39:55;15.90;73.60
40023;DHT22;25713;-35.352;149.036;2022-12-18T14:42:24;15.80;73.70
40023;DHT22;25713;-35.352;149.036;2022-12-18T14:44:54;15.70;74.00
40023;DHT22;25713;-35.352;149.036;2022-12-18T14:47:43;15.70;74.30
40023;DHT22;25713;-35.352;149.036;2022-12-18T14:50:12;15.70;73.50
40023;DHT22;25713;-35.352;149.036;2022-12-18T15:53:20;14.90;78.00
40023;DHT22;25713;-35.352;149.036;2022-12-18T15:55:50;14.90;77.60
40023;DHT22;25713;-35.352;149.036;2022-12-18T15:58:20;14.90;77.20
40023;DHT22;25713;-35.352;149.036;2022-12-18T16:00:49;14.90;77.20
40023;DHT22;25713;-35.352;149.036;2022-12-18T16:03:19;14.90;78.30
40023;DHT22;25713;-35.352;149.036;2022-12-18T16:05:49;14.90;77.50
40023;DHT22;25713;-35.352;149.036;2022-12-18T16:08:21;14.80;77.50
40023;DHT22;25713;-35.352;149.036;2022-12-18T16:10:51;14.80;75.90
40023;DHT22;25713;-35.352;149.036;2022-12-18T16:13:21;14.80;76.60
40023;DHT22;25713;-35.352;149.036;2022-12-18T16:15:51;14.80;77.20
40023;DHT22;25713;-35.352;149.036;2022-12-18T16:18:20;14.90;76.50